Time;durP1;ratioP1;P1;durP2;ratioP2;P2;SDS_P1;SDS_P2;PMS_P1;PMS_P2;Temp;Humidity;BMP_temperature;BMP_pressure;BME280_temperature;BME280_humidity;BME280_pressure;Samples;Min_cycle;Max_cycle;Signal;HPM_P1;HPM_P2
2021/05/03 00:00:12;;;;;;;7.87;4.27;;;6.00;99.90;;;;;;5135663;27;20205;-52
2021/05/03 00:02:39;;;;;;;6.07;4.20;;;6.10;99.90;;;;;;5136922;27;20193;-51
2021/05/03 00:05:08;;;;;;;5.77;4.20;;;6.10;99.90;;;;;;5136695;27;20206;-53
2021/05/03 00:07:35;;;;;;;4.97;4.10;;;6.10;99.90;;;;;;5136878;27;20353;-53
2021/05/03 00:10:03;;;;;;;6.80;4.43;;;6.00;99.90;;;;;;5136838;27;20372;-52
2021/05/03 00:12:30;;;;;;;6.13;4.40;;;6.00;99.90;;;;;;5136756;27;20301;-54
2021/05/03 00:14:57;;;;;;;4.37;3.97;;;5.90;99.90;;;;;;5136444;27;20634;-54
2021/05/03 00:17:25;;;;;;;5.93;4.80;;;5.90;99.90;;;;;;5136632;27;20289;-52
2021/05/03 00:19:52;;;;;;;5.27;4.60;;;5.90;99.90;;;;;;5136643;27;20217;-54
2021/05/03 00:22:19;;;;;;;5.27;3.73;;;5.80;99.90;;;;;;5136447;27;20187;-55
2021/05/03 00:24:45;;;;;;;7.47;3.90;;;5.90;99.90;;;;;;5136316;27;20201;-55
2021/05/03 00:27:12;;;;;;;6.13;4.17;;;5.90;99.90;;;;;;5136551;27;20244;-53
2021/05/03 00:29:40;;;;;;;5.03;4.00;;;5.90;99.90;;;;;;5136327;27;20211;-55
2021/05/03 00:32:07;;;;;;;5.20;4.50;;;5.90;99.90;;;;;;5136094;27;20225;-52
2021/05/03 00:34:35;;;;;;;4.47;3.60;;;6.00;99.90;;;;;;5137838;27;20198;-53
2021/05/03 00:37:01;;;;;;;4.57;4.10;;;6.10;99.90;;;;;;5137086;27;20208;-53
2021/05/03 00:39:28;;;;;;;4.10;3.70;;;6.20;99.90;;;;;;5135927;27;20215;-54
2021/05/03 00:41:55;;;;;;;4.37;3.93;;;6.20;99.90;;;;;;5136143;27;20201;-54
2021/05/03 00:44:25;;;;;;;4.10;3.57;;;6.20;99.90;;;;;;5135891;27;20198;-53
2021/05/03 00:46:52;;;;;;;4.40;3.60;;;6.30;99.90;;;;;;5136011;27;20201;-53
2021/05/03 00:49:19;;;;;;;4.30;3.67;;;6.30;99.90;;;;;;5134559;27;20616;-51
2021/05/03 00:51:47;;;;;;;3.40;2.97;;;6.20;99.90;;;;;;5135190;27;20202;-55
2021/05/03 00:54:14;;;;;;;3.73;3.30;;;6.20;99.90;;;;;;5135708;27;20718;-54
2021/05/03 00:56:41;;;;;;;4.30;3.40;;;6.30;99.90;;;;;;5135511;27;20565;-55
2021/05/03 00:59:08;;;;;;;4.43;3.40;;;6.30;99.90;;;;;;5135407;27;20292;-55
2021/05/03 01:01:35;;;;;;;4.13;3.10;;;6.40;99.90;;;;;;5128916;27;20281;-52
2021/05/03 01:04:02;;;;;;;3.43;3.13;;;6.40;99.90;;;;;;5135514;27;20752;-51
2021/05/03 01:06:29;;;;;;;3.53;3.23;;;6.40;99.90;;;;;;5135652;27;20233;-53
2021/05/03 01:08:56;;;;;;;4.83;3.57;;;6.40;99.90;;;;;;5135194;27;20622;-55
2021/05/03 01:11:23;;;;;;;5.40;3.47;;;6.40;99.90;;;;;;5135242;27;20205;-53
2021/05/03 01:13:51;;;;;;;4.37;3.47;;;6.40;99.90;;;;;;5135155;27;20674;-53
2021/05/03 01:16:18;;;;;;;4.10;3.13;;;6.40;99.90;;;;;;5135554;27;20229;-54
2021/05/03 01:18:48;;;;;;;3.20;2.90;;;6.40;99.90;;;;;;5135451;27;20639;-50
2021/05/03 01:21:23;;;;;;;5.40;3.43;;;6.40;99.90;;;;;;5135508;27;20202;-52
2021/05/03 01:23:50;;;;;;;3.60;3.00;;;6.40;99.90;;;;;;5135011;27;20238;-52
2021/05/03 01:26:17;;;;;;;4.57;3.47;;;6.40;99.90;;;;;;5134960;27;20387;-52
2021/05/03 01:28:44;;;;;;;4.07;3.60;;;6.40;99.90;;;;;;5135139;27;20288;-52
2021/05/03 01:31:11;;;;;;;5.57;3.40;;;6.40;99.90;;;;;;5135247;27;20242;-54
2021/05/03 01:33:38;;;;;;;5.03;3.43;;;6.40;99.90;;;;;;5135061;27;20308;-53
2021/05/03 01:36:06;;;;;;;7.00;3.43;;;6.20;99.90;;;;;;5134759;27;20316;-49
2021/05/03 01:38:34;;;;;;;4.07;3.00;;;6.20;99.90;;;;;;5134369;27;20194;-55
2021/05/03 01:41:01;;;;;;;5.10;3.23;;;6.20;99.90;;;;;;5134934;27;20292;-53
2021/05/03 01:43:28;;;;;;;4.63;3.20;;;6.20;99.90;;;;;;5134835;27;20281;-51
2021/05/03 01:45:57;;;;;;;4.23;3.40;;;6.10;99.90;;;;;;5134832;27;20206;-53
2021/05/03 01:48:25;;;;;;;5.77;3.53;;;6.10;99.90;;;;;;5134830;27;20245;-54
2021/05/03 01:50:53;;;;;;;4.13;3.13;;;6.00;99.90;;;;;;5134442;27;20300;-53
2021/05/03 01:53:21;;;;;;;8.13;3.43;;;6.00;99.90;;;;;;5134406;27;20236;-52
2021/05/03 01:55:50;;;;;;;3.43;3.13;;;5.90;99.90;;;;;;5134300;27;20206;-56
2021/05/03 01:58:17;;;;;;;3.80;3.20;;;5.90;99.90;;;;;;5134571;27;20309;-55
2021/05/03 02:00:44;;;;;;;4.93;3.43;;;5.80;99.90;;;;;;5134650;27;20292;-51
2021/05/03 02:03:19;;;;;;;3.80;3.40;;;5.60;99.90;;;;;;5134565;27;20347;-52
2021/05/03 02:05:46;;;;;;;4.10;3.43;;;5.60;99.90;;;;;;5134474;27;20232;-54
2021/05/03 02:08:13;;;;;;;5.57;3.53;;;5.60;99.90;;;;;;5134092;27;20641;-55
2021/05/03 02:10:40;;;;;;;4.80;3.70;;;5.60;99.90;;;;;;5134084;27;20299;-53
2021/05/03 02:13:09;;;;;;;5.70;4.00;;;5.60;99.90;;;;;;5133980;27;20955;-51
2021/05/03 02:15:36;;;;;;;4.13;3.33;;;5.50;99.90;;;;;;5134166;27;20238;-53
2021/05/03 02:18:03;;;;;;;4.47;3.43;;;5.50;99.90;;;;;;5134231;27;20205;-54
2021/05/03 02:20:31;;;;;;;4.80;3.70;;;5.40;99.90;;;;;;5134481;27;20207;-54
2021/05/03 02:23:00;;;;;;;4.77;3.97;;;5.40;99.90;;;;;;5133578;27;20195;-54
2021/05/03 02:25:27;;;;;;;4.30;3.90;;;5.30;99.90;;;;;;5134011;27;20606;-53
2021/05/03 02:27:54;;;;;;;4.67;3.63;;;5.30;99.90;;;;;;5133944;27;20201;-56
2021/05/03 02:30:22;;;;;;;4.57;3.77;;;5.20;99.90;;;;;;5133687;27;20653;-53
2021/05/03 02:32:49;;;;;;;4.33;3.93;;;5.20;99.90;;;;;;5133832;27;20217;-54
2021/05/03 02:35:17;;;;;;;5.23;3.57;;;5.20;99.90;;;;;;5133769;27;20200;-55
2021/05/03 02:37:46;;;;;;;5.17;2.97;;;5.20;99.90;;;;;;5133310;27;20233;-55
2021/05/03 02:40:15;;;;;;;5.00;3.93;;;5.20;99.90;;;;;;5133842;27;20288;-56
2021/05/03 02:42:44;;;;;;;5.37;4.00;;;5.20;99.90;;;;;;5133495;27;20195;-55
2021/05/03 02:45:12;;;;;;;5.70;3.53;;;5.00;99.90;;;;;;5133692;27;20244;-52
2021/05/03 02:47:40;;;;;;;6.63;4.17;;;5.00;99.90;;;;;;5133430;27;20252;-55
2021/05/03 02:50:09;;;;;;;4.40;4.00;;;5.00;99.90;;;;;;5133614;27;20294;-53
2021/05/03 02:52:36;;;;;;;5.27;3.87;;;5.10;99.90;;;;;;5133407;27;20240;-54
2021/05/03 02:55:04;;;;;;;4.73;3.83;;;5.20;99.90;;;;;;5133580;27;20202;-54
2021/05/03 02:57:31;;;;;;;3.87;3.53;;;5.30;99.90;;;;;;5112676;28;20299;-52
2021/05/03 02:59:58;;;;;;;3.87;3.43;;;5.40;99.90;;;;;;5112609;28;20306;-54
2021/05/03 03:02:24;;;;;;;4.30;3.90;;;5.40;99.90;;;;;;5112583;28;20713;-55
2021/05/03 03:04:52;;;;;;;5.87;3.47;;;5.40;99.90;;;;;;5112954;28;20293;-54
2021/05/03 03:07:19;;;;;;;4.63;3.87;;;5.30;99.90;;;;;;5112413;28;20207;-52
2021/05/03 03:09:46;;;;;;;4.80;3.97;;;5.40;99.90;;;;;;5112482;28;20711;-54
2021/05/03 03:12:12;;;;;;;4.60;3.90;;;5.40;99.90;;;;;;5112640;28;20198;-53
2021/05/03 03:14:41;;;;;;;5.30;4.00;;;5.50;99.90;;;;;;5112034;28;20287;-54
2021/05/03 03:17:09;;;;;;;4.17;3.77;;;5.50;99.90;;;;;;5112726;28;20218;-52
2021/05/03 03:19:37;;;;;;;3.97;3.60;;;5.50;99.90;;;;;;5112394;28;20627;-54
2021/05/03 03:22:06;;;;;;;4.47;3.90;;;5.50;99.90;;;;;;5112119;28;20245;-55
2021/05/03 03:24:33;;;;;;;4.50;3.43;;;5.60;99.90;;;;;;5112497;28;20197;-54
2021/05/03 03:27:00;;;;;;;5.93;3.73;;;5.60;99.90;;;;;;5112354;28;20258;-55
2021/05/03 03:29:27;;;;;;;6.70;4.00;;;5.70;99.90;;;;;;5112559;28;20614;-54
2021/05/03 03:31:54;;;;;;;4.87;3.87;;;5.70;99.90;;;;;;5112275;28;20294;-53
2021/05/03 03:34:21;;;;;;;5.20;3.73;;;5.70;99.90;;;;;;5111361;28;20226;-53
2021/05/03 03:36:48;;;;;;;5.20;3.77;;;5.60;99.90;;;;;;5112211;28;20239;-52
2021/05/03 03:39:16;;;;;;;5.10;3.90;;;5.70;99.90;;;;;;5111934;28;20269;-54
2021/05/03 03:41:42;;;;;;;5.70;3.70;;;5.60;99.90;;;;;;5112437;28;20203;-54
2021/05/03 03:44:11;;;;;;;4.63;3.60;;;5.70;99.90;;;;;;5112055;28;20287;-55
2021/05/03 03:46:37;;;;;;;4.63;3.80;;;5.70;99.90;;;;;;5112163;28;20206;-53
2021/05/03 03:49:05;;;;;;;5.87;3.63;;;5.70;99.90;;;;;;5112272;28;20235;-55
2021/05/03 03:51:31;;;;;;;6.07;4.20;;;5.70;99.90;;;;;;5112223;28;20739;-56
2021/05/03 03:53:58;;;;;;;3.83;3.37;;;5.70;99.90;;;;;;5112288;28;20226;-54
2021/05/03 03:56:28;;;;;;;4.50;4.00;;;5.80;99.90;;;;;;5123254;28;20647;-54
2021/05/03 03:58:55;;;;;;;5.43;4.33;;;5.80;99.90;;;;;;5132533;28;20225;-56
2021/05/03 04:01:22;;;;;;;4.90;3.83;;;5.80;99.90;;;;;;5132457;28;20190;-53
2021/05/03 04:03:52;;;;;;;4.80;3.80;;;5.80;99.90;;;;;;5132945;28;20191;-52
2021/05/03 04:06:32;;;;;;;5.30;4.23;;;5.90;99.90;;;;;;5132774;28;20187;-54
2021/05/03 04:09:05;;;;;;;6.13;4.60;;;5.90;99.90;;;;;;5132659;28;20187;-53
2021/05/03 04:11:51;;;;;;;5.17;4.67;;;5.90;99.90;;;;;;5132540;28;20630;-53
2021/05/03 04:25:22;;;;;;;7.03;5.63;;;6.00;99.90;;;;;;5129715;28;20287;-54
2021/05/03 04:27:50;;;;;;;10.97;6.57;;;6.10;99.90;;;;;;5132501;28;20186;-50
2021/05/03 04:30:18;;;;;;;7.73;6.20;;;6.00;99.90;;;;;;5132712;28;20199;-53
2021/05/03 04:32:45;;;;;;;8.07;7.17;;;6.00;99.90;;;;;;5132218;28;20214;-54
2021/05/03 04:35:12;;;;;;;7.97;7.17;;;6.00;99.90;;;;;;5132435;28;20291;-55
2021/05/03 04:37:41;;;;;;;8.23;7.13;;;6.00;99.90;;;;;;5131848;28;20645;-54
2021/05/03 04:40:09;;;;;;;9.40;8.20;;;6.10;99.90;;;;;;5132113;28;20201;-53
2021/05/03 04:42:36;;;;;;;9.43;8.43;;;6.20;99.90;;;;;;5132203;28;20197;-51
2021/05/03 04:45:05;;;;;;;9.37;8.00;;;6.20;99.90;;;;;;5133353;27;20206;-51
2021/05/03 04:47:32;;;;;;;9.00;7.63;;;6.20;99.90;;;;;;5135842;27;20234;-54
2021/05/03 04:49:59;;;;;;;9.63;7.63;;;6.30;99.90;;;;;;5137235;27;20195;-54
2021/05/03 04:52:26;;;;;;;7.87;7.07;;;6.40;99.90;;;;;;5136873;27;20202;-53
2021/05/03 04:54:53;;;;;;;7.47;6.27;;;6.40;99.90;;;;;;5136629;27;20202;-53
2021/05/03 04:57:20;;;;;;;7.03;5.00;;;6.40;99.90;;;;;;5135446;27;20237;-53
2021/05/03 04:59:47;;;;;;;7.23;5.63;;;6.50;99.90;;;;;;5135589;27;20209;-54
2021/05/03 05:02:14;;;;;;;5.50;5.00;;;6.50;99.90;;;;;;5135834;27;20198;-53
2021/05/03 05:04:41;;;;;;;6.30;5.10;;;6.60;99.90;;;;;;5135826;27;20209;-53
2021/05/03 05:07:08;;;;;;;5.23;4.43;;;6.70;99.90;;;;;;5135655;27;20752;-52
2021/05/03 05:09:36;;;;;;;6.50;4.67;;;6.70;99.90;;;;;;5135422;27;20229;-55
2021/05/03 05:12:03;;;;;;;4.93;4.10;;;6.80;99.90;;;;;;5135731;27;20290;-53
2021/05/03 05:14:30;;;;;;;7.33;4.30;;;6.80;99.90;;;;;;5134949;27;20240;-53
2021/05/03 05:16:57;;;;;;;7.03;4.47;;;6.90;99.90;;;;;;5135420;27;20244;-53
2021/05/03 05:19:25;;;;;;;6.77;4.80;;;6.90;99.90;;;;;;5135399;27;20202;-54
2021/05/03 05:21:52;;;;;;;6.10;4.70;;;6.90;99.90;;;;;;5135279;27;20666;-55
2021/05/03 05:24:19;;;;;;;4.90;4.37;;;6.90;99.90;;;;;;5135106;27;20233;-53
2021/05/03 05:26:46;;;;;;;5.17;4.67;;;7.00;99.90;;;;;;5135360;27;20286;-53
2021/05/03 05:29:13;;;;;;;5.67;4.60;;;6.90;99.90;;;;;;5134665;27;20297;-54
2021/05/03 05:31:40;;;;;;;6.60;4.80;;;7.00;99.90;;;;;;5135030;27;20290;-53
2021/05/03 05:34:07;;;;;;;5.37;4.40;;;7.20;99.90;;;;;;5134970;27;20309;-53
2021/05/03 05:36:35;;;;;;;7.03;4.73;;;7.30;99.90;;;;;;5135180;27;20293;-53
2021/05/03 05:39:02;;;;;;;5.10;4.60;;;7.40;99.90;;;;;;5134908;27;20293;-51
2021/05/03 05:41:29;;;;;;;5.00;4.13;;;7.40;99.90;;;;;;5135205;27;20195;-55
2021/05/03 05:43:56;;;;;;;5.93;4.47;;;7.40;99.90;;;;;;5134881;27;20313;-55
2021/05/03 05:46:23;;;;;;;4.80;4.30;;;7.50;99.90;;;;;;5135141;27;20201;-54
2021/05/03 05:48:50;;;;;;;5.37;4.57;;;7.60;99.90;;;;;;5134852;27;20289;-53
2021/05/03 05:51:16;;;;;;;6.13;4.73;;;7.60;99.90;;;;;;5135097;27;20637;-56
2021/05/03 05:53:44;;;;;;;5.70;4.40;;;7.50;99.90;;;;;;5134781;27;20305;-54
2021/05/03 05:56:11;;;;;;;5.70;4.53;;;7.60;99.90;;;;;;5133823;27;20196;-56
2021/05/03 05:58:38;;;;;;;5.70;4.70;;;7.70;99.90;;;;;;5134553;27;20507;-55
2021/05/03 06:01:04;;;;;;;5.80;4.70;;;7.80;99.90;;;;;;5134834;27;20297;-53
2021/05/03 06:03:31;;;;;;;5.53;4.53;;;7.70;99.90;;;;;;5134693;27;20230;-55
2021/05/03 06:05:59;;;;;;;5.83;4.77;;;7.90;99.90;;;;;;5134574;27;20217;-54
2021/05/03 06:08:26;;;;;;;5.03;4.53;;;8.00;99.90;;;;;;5134367;27;20207;-54
2021/05/03 06:10:54;;;;;;;6.00;4.67;;;8.30;99.90;;;;;;5134458;27;20237;-52
2021/05/03 06:13:21;;;;;;;9.40;4.77;;;8.40;99.90;;;;;;5134040;27;20616;-53
2021/05/03 06:15:48;;;;;;;4.47;3.87;;;8.40;99.90;;;;;;5134079;27;20332;-55
2021/05/03 06:18:15;;;;;;;4.97;4.30;;;8.40;99.90;;;;;;5134323;27;20543;-52
2021/05/03 06:20:41;;;;;;;5.00;4.60;;;8.50;99.90;;;;;;5134369;27;20199;-55
2021/05/03 06:23:11;;;;;;;4.53;4.13;;;8.60;99.90;;;;;;5134019;27;20638;-56
2021/05/03 06:25:38;;;;;;;5.30;4.30;;;8.50;99.90;;;;;;5134269;27;20198;-55
2021/05/03 06:28:07;;;;;;;4.67;4.27;;;8.50;99.90;;;;;;5134411;27;20241;-54
2021/05/03 06:30:34;;;;;;;6.20;4.47;;;8.50;99.90;;;;;;5134358;27;20285;-54
2021/05/03 06:33:02;;;;;;;4.83;4.43;;;8.50;99.90;;;;;;5133933;27;20294;-56
2021/05/03 06:35:29;;;;;;;6.13;4.70;;;8.60;99.90;;;;;;5133214;27;20210;-59
2021/05/03 06:37:56;;;;;;;6.27;4.50;;;8.60;99.90;;;;;;5133749;27;20289;-53
2021/05/03 06:40:23;;;;;;;4.60;4.20;;;8.50;99.90;;;;;;5132850;27;20625;-54
2021/05/03 06:42:50;;;;;;;6.07;4.33;;;8.50;99.90;;;;;;5130426;27;20570;-54
2021/05/03 06:45:20;;;;;;;6.87;5.40;;;8.50;99.90;;;;;;5130356;27;20541;-54
2021/05/03 06:47:49;;;;;;;10.43;6.60;;;8.50;99.90;;;;;;5131061;27;20564;-52
2021/05/03 06:50:17;;;;;;;7.10;5.57;;;8.60;99.90;;;;;;5130931;27;20210;-54
2021/05/03 06:52:44;;;;;;;6.93;5.07;;;8.80;99.90;;;;;;5130820;27;20199;-53
2021/05/03 06:55:12;;;;;;;5.90;4.37;;;9.00;99.90;;;;;;5130459;27;20712;-56
2021/05/03 06:57:40;;;;;;;4.80;4.40;;;9.20;99.90;;;;;;5130756;27;20209;-56
2021/05/03 07:00:09;;;;;;;6.23;4.40;;;9.20;99.90;;;;;;5130626;27;20289;-56
2021/05/03 07:02:38;;;;;;;5.20;4.43;;;9.10;99.90;;;;;;5130635;27;20199;-55
2021/05/03 07:05:06;;;;;;;5.17;4.67;;;9.00;99.90;;;;;;5130682;27;20203;-55
2021/05/03 07:07:33;;;;;;;5.20;4.70;;;9.00;99.90;;;;;;5129730;27;20198;-52
2021/05/03 07:10:00;;;;;;;3.83;3.20;;;9.10;99.90;;;;;;5130597;27;20206;-58
2021/05/03 07:12:27;;;;;;;3.97;3.23;;;9.10;99.90;;;;;;5130259;27;20199;-55
2021/05/03 07:14:54;;;;;;;3.17;2.73;;;9.00;99.90;;;;;;5129481;27;20270;-54
2021/05/03 07:17:21;;;;;;;3.90;2.77;;;9.00;99.90;;;;;;5129443;27;20564;-55
2021/05/03 07:19:49;;;;;;;3.67;3.37;;;9.00;99.90;;;;;;5129828;27;20202;-55
2021/05/03 07:22:16;;;;;;;5.17;3.47;;;9.10;99.90;;;;;;5130396;27;20821;-57
2021/05/03 07:24:44;;;;;;;5.67;4.10;;;9.10;99.90;;;;;;5129358;27;20201;-55
2021/05/03 07:27:12;;;;;;;4.10;3.70;;;9.00;99.90;;;;;;5130088;27;20226;-56
2021/05/03 07:29:39;;;;;;;4.40;4.00;;;9.00;99.90;;;;;;5129788;27;20233;-52
2021/05/03 07:32:07;;;;;;;4.70;3.40;;;9.10;99.90;;;;;;5130215;27;20222;-53
2021/05/03 07:34:35;;;;;;;3.03;2.73;;;9.40;99.90;;;;;;5129554;27;20228;-55
2021/05/03 07:37:06;;;;;;;2.90;2.70;;;9.60;99.90;;;;;;5129915;27;20199;-54
2021/05/03 07:39:33;;;;;;;4.67;2.90;;;9.50;99.90;;;;;;5129952;27;20289;-53
2021/05/03 07:42:00;;;;;;;4.13;3.40;;;9.40;99.90;;;;;;5129509;27;20302;-51
2021/05/03 07:44:45;;;;;;;3.30;3.00;;;9.40;99.90;;;;;;5129838;27;20179;-54
2021/05/03 07:47:12;;;;;;;4.10;2.80;;;9.60;99.90;;;;;;5129397;27;20202;-52
2021/05/03 07:49:40;;;;;;;4.60;3.07;;;9.70;99.90;;;;;;5129123;28;20255;-53
2021/05/03 07:52:07;;;;;;;3.73;2.87;;;9.80;99.90;;;;;;5129694;28;20275;-50
2021/05/03 07:54:35;;;;;;;4.63;2.83;;;9.80;99.90;;;;;;5128564;28;20218;-53
2021/05/03 07:57:03;;;;;;;3.53;3.20;;;9.60;99.90;;;;;;5128455;28;20673;-55
2021/05/03 07:59:29;;;;;;;3.47;2.67;;;9.40;99.90;;;;;;5128898;28;20687;-53
2021/05/03 08:01:56;;;;;;;2.47;2.27;;;9.50;99.90;;;;;;5128991;28;20202;-55
2021/05/03 08:04:24;;;;;;;3.10;2.47;;;9.80;99.90;;;;;;5129449;28;20205;-55
2021/05/03 08:06:56;;;;;;;3.03;2.70;;;10.20;99.90;;;;;;5129804;28;20210;-56
2021/05/03 08:09:24;;;;;;;2.73;1.90;;;10.30;99.90;;;;;;5129499;28;20222;-52
2021/05/03 08:11:52;;;;;;;2.20;2.00;;;10.40;99.90;;;;;;5129129;28;20212;-59
2021/05/03 08:14:20;;;;;;;2.77;2.40;;;10.30;99.90;;;;;;5129308;28;20280;-56
2021/05/03 08:16:50;;;;;;;2.43;2.00;;;10.30;99.90;;;;;;5128924;28;20221;-56
2021/05/03 08:19:17;;;;;;;2.00;1.80;;;10.40;99.90;;;;;;5128432;27;20606;-55
2021/05/03 08:21:55;;;;;;;3.70;2.50;;;10.40;99.90;;;;;;5131574;27;20221;-53
2021/05/03 08:24:23;;;;;;;2.53;2.23;;;10.40;99.90;;;;;;5133616;27;20207;-49
2021/05/03 08:26:53;;;;;;;2.27;1.97;;;10.20;99.90;;;;;;5133692;27;20263;-52
2021/05/03 08:29:20;;;;;;;3.07;2.57;;;10.00;99.90;;;;;;5133034;27;20603;-49
2021/05/03 08:31:47;;;;;;;3.60;2.50;;;9.80;99.90;;;;;;5133423;27;20294;-52
2021/05/03 08:34:14;;;;;;;2.50;2.10;;;9.70;99.90;;;;;;5133417;27;20218;-54
2021/05/03 08:36:41;;;;;;;2.30;2.10;;;9.70;99.90;;;;;;5133315;27;20285;-53
2021/05/03 08:39:11;;;;;;;3.83;2.00;;;9.70;99.90;;;;;;5133609;27;20195;-57
2021/05/03 08:41:40;;;;;;;2.40;2.10;;;9.80;99.90;;;;;;5133280;27;20217;-52
2021/05/03 08:44:07;;;;;;;3.00;2.50;;;10.10;99.90;;;;;;5132592;27;20666;-55
2021/05/03 08:46:39;;;;;;;3.40;2.37;;;10.40;99.90;;;;;;5133302;27;20198;-55
2021/05/03 08:49:13;;;;;;;2.53;2.20;;;10.70;99.90;;;;;;5132854;27;20274;-56
2021/05/03 08:51:45;;;;;;;3.00;2.43;;;10.90;99.90;;;;;;5140990;27;20425;-53
2021/05/03 08:54:19;;;;;;;2.63;2.33;;;11.10;99.90;;;;;;5153107;27;20202;-54
2021/05/03 08:56:46;;;;;;;2.93;2.33;;;11.20;99.90;;;;;;5138812;27;20201;-54
2021/05/03 08:59:14;;;;;;;3.80;2.50;;;11.50;99.90;;;;;;5132402;27;20205;-56
2021/05/03 09:01:43;;;;;;;3.63;2.47;;;11.70;99.90;;;;;;5132254;27;20203;-56
2021/05/03 09:04:11;;;;;;;2.30;2.00;;;11.80;99.90;;;;;;5132502;27;20191;-52
2021/05/03 09:06:38;;;;;;;2.77;2.33;;;11.80;99.90;;;;;;5133303;27;20194;-54
2021/05/03 09:09:10;;;;;;;3.08;2.60;;;11.80;99.90;;;;;;5132975;27;20676;-55
2021/05/03 09:11:37;;;;;;;4.37;2.70;;;11.80;99.90;;;;;;5132747;27;20187;-53
2021/05/03 09:14:16;;;;;;;2.63;2.10;;;11.60;99.90;;;;;;5132390;27;20255;-54
2021/05/03 09:16:44;;;;;;;2.73;2.33;;;11.40;99.90;;;;;;5132134;27;20674;-55
2021/05/03 09:19:12;;;;;;;2.47;2.13;;;11.30;99.90;;;;;;5132168;27;20195;-57
2021/05/03 09:21:39;;;;;;;4.70;2.43;;;11.20;99.90;;;;;;5140138;27;20218;-55
2021/05/03 09:24:13;;;;;;;3.10;2.10;;;11.30;99.90;;;;;;5152918;27;20299;-55
2021/05/03 09:26:45;;;;;;;2.20;1.97;;;11.30;99.90;;;;;;5152978;27;20277;-54
2021/05/03 09:29:30;;;;;;;3.43;1.90;;;11.40;99.90;;;;;;5152755;27;20254;-55
2021/05/03 09:31:59;;;;;;;3.17;2.37;;;11.20;99.90;;;;;;5151207;27;20302;-55
2021/05/03 09:34:28;;;;;;;2.23;1.80;;;11.00;99.90;;;;;;5152673;27;20225;-54
2021/05/03 09:37:16;;;;;;;2.30;2.10;;;11.10;99.90;;;;;;5152528;27;20213;-57
2021/05/03 09:39:43;;;;;;;2.20;1.90;;;11.10;99.90;;;;;;5152568;27;20618;-58
2021/05/03 09:42:10;;;;;;;2.83;2.20;;;11.20;99.90;;;;;;5152174;27;20201;-57
2021/05/03 09:44:38;;;;;;;2.77;2.10;;;11.40;99.90;;;;;;5152114;27;20656;-52
2021/05/03 09:47:05;;;;;;;2.20;2.00;;;11.60;99.90;;;;;;5152449;27;20288;-50
2021/05/03 09:49:33;;;;;;;3.77;1.97;;;11.50;99.90;;;;;;5152463;27;20542;-54
2021/05/03 09:52:02;;;;;;;2.27;1.87;;;11.40;99.90;;;;;;5152235;27;20208;-52
2021/05/03 09:54:30;;;;;;;2.10;1.60;;;11.30;99.90;;;;;;5152683;27;20239;-54
2021/05/03 09:57:03;;;;;;;2.33;1.70;;;11.20;99.90;;;;;;5136124;27;20206;-55
2021/05/03 09:59:33;;;;;;;2.33;1.90;;;11.10;99.90;;;;;;5132048;27;20590;-55
2021/05/03 10:02:03;;;;;;;2.03;1.83;;;11.00;99.90;;;;;;5131766;27;20206;-55
2021/05/03 10:04:31;;;;;;;5.10;2.60;;;10.90;99.90;;;;;;5131924;27;20364;-54
2021/05/03 10:06:58;;;;;;;2.40;2.10;;;10.80;99.90;;;;;;5131500;27;20203;-55
2021/05/03 10:09:26;;;;;;;3.07;2.00;;;10.90;99.90;;;;;;5131483;27;20210;-52
2021/05/03 10:11:53;;;;;;;3.40;2.20;;;11.10;99.90;;;;;;5131627;27;20289;-54
2021/05/03 10:14:21;;;;;;;2.60;2.40;;;11.20;99.90;;;;;;5131102;27;20613;-53
2021/05/03 10:16:49;;;;;;;2.53;2.30;;;11.20;99.90;;;;;;5131654;27;20201;-54
2021/05/03 10:19:20;;;;;;;3.37;2.77;;;11.00;99.90;;;;;;5130715;27;20814;-54
2021/05/03 10:21:47;;;;;;;3.90;2.40;;;11.00;99.90;;;;;;5121567;27;20685;-54
2021/05/03 10:24:15;;;;;;;2.77;2.37;;;11.20;99.90;;;;;;5107772;28;20315;-55
2021/05/03 10:26:44;;;;;;;3.67;2.47;;;11.40;99.90;;;;;;5110252;28;20206;-54
2021/05/03 10:29:25;;;;;;;2.40;2.20;;;11.50;99.90;;;;;;5110107;28;20290;-52
2021/05/03 10:32:01;;;;;;;2.23;2.03;;;11.50;99.90;;;;;;5110380;28;20631;-55
2021/05/03 10:34:40;;;;;;;3.37;1.93;;;11.60;99.90;;;;;;5110221;28;20241;-55
2021/05/03 10:37:47;;;;;;;2.30;1.90;;;11.70;99.90;;;;;;5109861;28;20294;-51
2021/05/03 10:40:48;;;;;;;3.53;2.03;;;12.00;99.90;;;;;;5110133;28;20944;-53
2021/05/03 10:43:28;;;;;;;3.10;2.23;;;12.00;99.90;;;;;;5109600;28;20211;-51
2021/05/03 10:46:08;;;;;;;1.63;1.50;;;12.10;99.90;;;;;;5109990;28;20286;-54
2021/05/03 10:48:47;;;;;;;2.60;2.00;;;12.30;99.90;;;;;;5109901;28;20663;-51
2021/05/03 10:51:52;;;;;;;2.77;1.90;;;12.60;99.90;;;;;;5114481;27;20198;-54
2021/05/03 10:54:43;;;;;;;2.20;2.00;;;12.70;99.90;;;;;;5130285;27;20302;-54
2021/05/03 10:57:34;;;;;;;3.50;2.20;;;13.00;99.90;;;;;;5129771;27;20720;-54
2021/05/03 11:00:03;;;;;;;3.50;2.20;;;13.50;99.90;;;;;;5130220;27;20265;-55
2021/05/03 11:02:45;;;;;;;2.40;2.17;;;13.80;99.90;;;;;;5130401;27;20604;-55
2021/05/03 11:05:25;;;;;;;4.43;2.40;;;13.90;99.90;;;;;;5130347;27;20198;-55
2021/05/03 11:08:20;;;;;;;2.22;1.98;;;13.80;99.90;;;;;;5129439;27;20567;-56
2021/05/03 11:11:05;;;;;;;1.93;1.83;;;13.60;99.90;;;;;;5129769;27;20274;-54
2021/05/03 11:14:00;;;;;;;2.28;2.08;;;13.40;99.90;;;;;;5120034;27;20662;-55
2021/05/03 11:16:50;;;;;;;2.30;2.10;;;13.20;99.90;;;;;;5128699;27;20225;-56
2021/05/03 11:19:46;;;;;;;2.20;2.00;;;13.00;99.90;;;;;;5130341;27;20191;-55
2021/05/03 11:22:17;;;;;;;2.78;2.30;;;12.70;99.90;;;;;;5130232;27;20273;-55
2021/05/03 11:24:51;;;;;;;2.63;2.43;;;12.80;99.90;;;;;;5130161;27;20179;-55
2021/05/03 11:27:26;;;;;;;2.57;2.37;;;12.80;99.90;;;;;;5130353;27;20534;-53
2021/05/03 11:29:58;;;;;;;2.77;2.10;;;12.70;99.90;;;;;;5130053;27;20310;-54
2021/05/03 11:32:32;;;;;;;2.53;2.20;;;12.70;99.90;;;;;;5129653;27;20828;-54
2021/05/03 11:35:06;;;;;;;2.60;2.40;;;12.80;99.90;;;;;;5128913;27;20236;-53
2021/05/03 11:37:43;;;;;;;2.97;2.67;;;12.70;99.90;;;;;;5129188;27;20189;-51
2021/05/03 11:40:23;;;;;;;2.73;2.53;;;12.80;99.90;;;;;;5129715;27;20586;-53
2021/05/03 11:45:32;;;;;;;3.15;2.85;;;13.20;99.90;;;;;;5129711;27;20265;-54
2021/05/03 11:48:00;;;;;;;3.42;2.53;;;13.60;99.90;;;;;;5129588;27;20663;-54
2021/05/03 11:50:29;;;;;;;2.75;2.42;;;14.00;99.90;;;;;;5129927;27;20198;-55
2021/05/03 11:52:59;;;;;;;3.35;3.05;;;14.50;99.90;;;;;;5129257;27;20190;-56
2021/05/03 11:55:27;;;;;;;3.25;2.95;;;14.60;99.90;;;;;;5128970;27;20321;-57
2021/05/03 11:57:55;;;;;;;3.20;2.75;;;14.70;99.90;;;;;;5129385;28;20289;-56
2021/05/03 12:00:23;;;;;;;4.78;2.80;;;14.70;99.90;;;;;;5129622;28;20248;-56
2021/05/03 12:03:01;;;;;;;3.67;3.20;;;14.50;99.90;;;;;;5129368;28;20256;-56
2021/05/03 12:05:30;;;;;;;3.42;3.13;;;14.50;99.90;;;;;;5129929;28;20187;-55
2021/05/03 12:07:57;;;;;;;3.63;3.33;;;14.60;99.90;;;;;;5129380;28;20638;-57
2021/05/03 12:10:24;;;;;;;3.28;3.08;;;14.80;99.90;;;;;;5129724;28;20290;-55
2021/05/03 12:12:53;;;;;;;4.25;3.85;;;14.70;99.90;;;;;;5129269;28;20199;-55
2021/05/03 12:15:21;;;;;;;4.35;3.20;;;14.60;99.90;;;;;;5129256;28;20317;-54
2021/05/03 12:17:49;;;;;;;3.38;3.08;;;14.50;99.90;;;;;;5129675;28;20222;-55
2021/05/03 12:20:18;;;;;;;4.78;2.83;;;14.50;99.90;;;;;;5129401;28;20204;-57
2021/05/03 12:22:56;;;;;;;3.50;3.20;;;14.60;99.90;;;;;;5129386;28;20282;-57
2021/05/03 12:25:24;;;;;;;3.40;3.10;;;14.80;99.90;;;;;;5128975;28;20689;-57
2021/05/03 12:27:52;;;;;;;3.20;2.90;;;15.00;99.90;;;;;;5129389;28;20229;-56
2021/05/03 12:30:20;;;;;;;3.60;3.30;;;15.20;99.90;;;;;;5129232;28;20722;-60
2021/05/03 12:32:47;;;;;;;3.95;3.50;;;15.20;99.90;;;;;;5129395;28;20199;-59
2021/05/03 12:35:17;;;;;;;4.95;3.22;;;15.20;99.90;;;;;;5129080;28;20219;-51
2021/05/03 12:37:44;;;;;;;2.75;2.55;;;15.40;99.90;;;;;;5129278;28;20285;-56
2021/05/03 12:40:13;;;;;;;3.35;3.05;;;15.50;99.90;;;;;;5129478;28;20290;-56
2021/05/03 12:42:43;;;;;;;3.78;3.38;;;15.40;99.90;;;;;;5129677;28;20633;-56
2021/05/03 12:45:34;;;;;;;3.65;3.22;;;15.20;99.90;;;;;;5128779;28;20734;-52
2021/05/03 12:51:03;;;;;;;3.40;3.03;;;14.90;99.90;;;;;;5126353;28;20195;-51
2021/05/03 12:53:36;;;;;;;3.58;2.90;;;14.90;99.90;;;;;;5128745;28;20214;-59
2021/05/03 12:56:14;;;;;;;3.20;2.90;;;14.80;99.90;;;;;;5128533;28;20601;-54
2021/05/03 12:58:53;;;;;;;3.75;2.75;;;14.70;99.90;;;;;;5128834;28;20183;-53
2021/05/03 13:01:32;;;;;;;3.45;2.95;;;14.70;99.90;;;;;;5128369;28;20293;-54
2021/05/03 13:04:07;;;;;;;3.20;3.00;;;14.60;99.90;;;;;;5129361;28;20274;-52
2021/05/03 13:06:45;;;;;;;3.22;2.92;;;14.50;99.90;;;;;;5130940;27;20293;-55
2021/05/03 13:29:13;;;;;;;3.17;2.80;;;15.10;99.90;;;;;;5132118;27;20205;-51
2021/05/03 13:31:42;;;;;;;3.80;3.40;;;15.30;99.90;;;;;;5132130;27;20233;-56
2021/05/03 13:34:13;;;;;;;3.08;2.83;;;15.40;99.90;;;;;;5131876;27;20214;-54
2021/05/03 13:36:43;;;;;;;3.78;3.03;;;15.40;99.90;;;;;;5131847;27;20183;-58
2021/05/03 13:39:11;;;;;;;3.22;2.75;;;15.40;99.90;;;;;;5131759;27;20203;-56
2021/05/03 13:41:40;;;;;;;4.22;2.85;;;15.40;99.90;;;;;;5131845;27;20230;-54